Current Conditions - Area Ports

 

CYWH - Victoria Harbour, British Columbia, Canada
Distance from station: WSW 10km
Updated: 01/20/2018 9:00pm
NOT Current
Overcast
Overcast
 Wind from ESE
Wind: ESE 24 km/h
Temperature: 8°C
Wind Chill: 4°C
Dew Point: 5°C
Humidity: 82%
Barometer: 1008.8 hPa
Clouds: Overcast
Visibility: 24 km
Cloud details: Few Clouds 366 m
Partly cloudy 1524 m
Overcast 3962 m
2018/01/21 05:00 CYWH 210500Z 12013KT 15SM FEW012 SCT050 OVC130 08/05 A2979 RMK CF1SC3AC4 LAST STFD OBS/NEXT 211400 UTC SLP090
KFHR - Friday Harbor, Washington, USA
Distance from station: ENE 19km
Updated: 01/21/2018 2:53am
Overcast
Overcast
 Wind from SE
Wind: SE 50 km/h, Gust: 80 km/h
Temperature: 8°C
Wind Chill: 2°C
Dew Point: 3°C
Humidity: 71%
Barometer: 1006.8 hPa
Clouds: Overcast
Visibility: 16 km
Cloud details: Overcast 2438 m
2018/01/21 10:53 KFHR 211053Z AUTO 14027G43KT 10SM OVC080 08/03 A2973 RMK AO2 PK WND 14044/0958 SLP067 T00830033
 
KORS - Eastsound/Orcas, Washington, USA
Distance from station: NE 38km
Updated: 01/21/2018 2:35am
Overcast
Overcast
 Wind from SSE
Wind: SSE 35 km/h, Gust: 63 km/h
Temperature: 10°C
Wind Chill: 6°C
Dew Point: 3°C
Humidity: 62%
Barometer: 1006.8 hPa
Clouds: Overcast
Visibility: 16 km
Cloud details: Partly cloudy 975 m
Partly cloudy 1981 m
Overcast 2438 m
2018/01/21 10:35 KORS 211035Z AUTO 16019G34KT 10SM SCT032 SCT065 OVC080 10/03 A2973 RMK AO2
KNUW - Whidbey Is. Nas, Washington, USA
Distance from station: ESE 47km
Updated: 01/21/2018 1:56am
Overcast
Overcast
 Wind from SSE
Wind: SSE 56 km/h, Gust: 72 km/h
Temperature: 11°C
Dew Point: 3°C
Humidity: 58%
Barometer: 1010.5 hPa
Clouds: Overcast
Visibility: 16 km
Cloud details: Partly cloudy 549 m
Overcast 1036 m
2018/01/21 09:56 KNUW 210956Z 15030G39KT 10SM SCT018 OVC034 11/03 A2984 RMK AO2 PK WND 15043/0908 RAB05E20 SLP104 P0000 T01110033 $
 
CWEZ - Saturna Isl (map, British Columbia, Canada
Distance from station: NNE 40km
Updated: 01/21/2018 2:00am

 Wind from SSE
Wind: SSE 85 km/h, Gust: 100 km/h
Temperature: 9°C
Wind Chill: 3°C
Dew Point: 4°C
Humidity: 71%
2018/01/21 10:00 CWEZ 211000Z AUTO 16046G54KT 09/04 RMK AO1 6024 PK WND 15056/0923 SLP054 T00910035 50002
CYCD - Nanaimo Airport, British Columbia, Canada
Distance from station: NW 80km
Updated: 01/20/2018 9:00pm
NOT Current
Light rain, Showers, Overcast
Light rain, Showers, Overcast
 Wind from ESE
Wind: ESE 22 km/h, Gust: 33 km/h
Temperature: 6°C
Wind Chill: 2°C
Dew Point: 6°C
Humidity: 100%
Barometer: 1008.1 hPa
Summary: Light rain, Showers
Clouds: Overcast
Visibility: 16 km
Cloud details: Partly cloudy 274 m
Mostly cloudy 610 m
Overcast 1128 m
2018/01/21 05:00 CYCD 210500Z 11012G18KT 10SM -SHRA SCT009 BKN020 OVC037 06/06 A2977 RMK CF3SC2SC3 CIG RAG CU EMBDD LAST OBS/NEXT 211400 UTC SLP083
 
CWVF - Sand Heads (ls), British Columbia, Canada
Distance from station: N 72km
Updated: 01/21/2018 2:45am

 Wind from SSE
Wind: SSE 50 km/h, Gust: 63 km/h
Temperature: 9°C
Wind Chill: 4°C
2018/01/21 10:45 CWVF 211045Z AUTO 16027G34KT 09/ RMK AO1 PK WND 16038/1010 T0090
CWQK - Race Rocks Autob, British Columbia, Canada
Distance from station: SW 26km
Updated: 01/21/2018 2:00am

 Wind from SE
Wind: SE 35 km/h
Temperature: 10°C
Wind Chill: 6°C
Dew Point: 4°C
Humidity: 67%
2018/01/21 10:00 CWQK 211000Z AUTO 13019KT 10/04 RMK AO1 PK WND 14023/0959 SLP053 T00950044 58022
 
CWSP - Sheringham Autob, British Columbia, Canada
Distance from station: W 49km
Updated: 01/21/2018 2:00am

 Wind from WNW
Wind: WNW 13 km/h
Temperature: 10°C
Wind Chill: 8°C
Dew Point: 5°C
Humidity: 71%
2018/01/21 10:00 CWSP 211000Z AUTO 29007KT 10/05 RMK AO1 8018 SLP060 T00970049 50010